Terminal Aerodrome Forecast
Issued by NWS Twin Cities, MN

Home | Current Version | Previous Version | Graphics & Text | Print | Product List | Glossary On
Versions: 1 2 3 4 5 6 7 8 9 10 11 12 13 14 15 16 17 18 19 20 21 22 23 24
150
FTUS43 KMPX 192339
TAFSTC
TAF
KSTC 192339Z 2000/2024 13010KT P6SM OVC200 WS020/20045KT
     FM200900 15010KT P6SM OVC050
     FM201500 16009KT 4SM -SHRA BR VCTS OVC010CB
     FM202000 21009KT P6SM BKN020
     FM202300 26010KT P6SM SCT020 BKN060=

USA.gov is the U.S. government's official web portal to all federal, state and local government web resources and services.